Time;durP1;ratioP1;P1;durP2;ratioP2;P2;SDS_P1;SDS_P2;PMS_P1;PMS_P2;Temp;Humidity;BMP_temperature;BMP_pressure;BME280_temperature;BME280_humidity;BME280_pressure;Samples;Min_cycle;Max_cycle;Signal;HPM_P1;HPM_P2
2020/12/27 00:00:39;;;;;;;6.72;3.25;;;2.40;99.90;;;;;;5035443;28;20087;-65
2020/12/27 00:03:05;;;;;;;6.88;3.30;;;2.40;99.90;;;;;;5035143;28;20037;-66
2020/12/27 00:05:30;;;;;;;4.15;2.72;;;2.50;99.90;;;;;;5035628;28;20036;-66
2020/12/27 00:07:56;;;;;;;5.43;2.97;;;2.40;99.90;;;;;;5035526;28;20040;-67
2020/12/27 00:10:22;;;;;;;4.32;2.35;;;2.50;99.90;;;;;;5016265;28;20549;-65
2020/12/27 00:12:49;;;;;;;3.90;2.42;;;2.40;99.90;;;;;;5016289;28;20467;-66
2020/12/27 00:15:15;;;;;;;5.07;2.65;;;2.50;99.90;;;;;;5033984;28;20108;-65
2020/12/27 00:17:42;;;;;;;2.83;1.98;;;2.50;99.90;;;;;;5034283;28;20068;-66
2020/12/27 00:20:09;;;;;;;3.95;2.17;;;2.40;99.90;;;;;;5033615;28;20121;-66
2020/12/27 00:22:34;;;;;;;3.35;2.03;;;2.50;99.90;;;;;;5034710;28;20033;-65
2020/12/27 00:25:00;;;;;;;5.40;2.40;;;2.40;99.90;;;;;;5035371;28;20080;-68
2020/12/27 00:27:26;;;;;;;4.70;2.70;;;2.30;99.90;;;;;;5019066;28;20029;-67
2020/12/27 00:29:51;;;;;;;7.97;2.80;;;2.30;99.90;;;;;;5019170;28;20026;-67
2020/12/27 00:32:17;;;;;;;4.75;2.58;;;2.40;99.90;;;;;;5036771;28;20586;-69
2020/12/27 00:34:43;;;;;;;4.13;2.65;;;2.40;99.90;;;;;;5019140;28;20399;-65
2020/12/27 00:37:09;;;;;;;5.72;2.60;;;2.30;99.90;;;;;;5034543;28;20021;-66
2020/12/27 00:39:34;;;;;;;3.25;2.50;;;2.30;99.90;;;;;;5034783;28;20025;-64
2020/12/27 00:42:01;;;;;;;3.35;2.35;;;2.40;99.90;;;;;;5034203;28;20112;-67
2020/12/27 00:44:27;;;;;;;4.72;3.42;;;2.30;99.90;;;;;;5034677;28;20478;-65
2020/12/27 00:46:54;;;;;;;3.22;2.40;;;2.40;99.90;;;;;;5034196;28;20022;-63
2020/12/27 00:49:20;;;;;;;4.88;2.63;;;2.30;99.90;;;;;;5033303;28;20199;-64
2020/12/27 00:51:46;;;;;;;3.90;2.58;;;2.30;99.90;;;;;;5034742;28;20029;-66
2020/12/27 00:54:12;;;;;;;7.85;3.25;;;2.20;99.90;;;;;;5035026;28;20032;-65
2020/12/27 00:56:39;;;;;;;4.13;2.65;;;2.20;99.90;;;;;;5035530;28;20029;-65
2020/12/27 00:59:05;;;;;;;4.85;2.35;;;2.20;99.90;;;;;;5017274;28;20030;-64
2020/12/27 01:01:31;;;;;;;5.90;2.67;;;2.20;99.90;;;;;;5016975;28;20120;-63
2020/12/27 01:03:57;;;;;;;5.65;2.58;;;2.20;99.90;;;;;;5034915;28;20435;-65
2020/12/27 01:06:26;;;;;;;5.53;2.90;;;2.20;99.90;;;;;;5035319;28;20037;-66
2020/12/27 01:08:53;;;;;;;5.20;1.83;;;2.20;99.90;;;;;;5019090;28;20036;-65
2020/12/27 01:11:19;;;;;;;3.97;2.58;;;2.20;99.90;;;;;;5016838;28;20568;-64
2020/12/27 01:13:45;;;;;;;6.47;2.30;;;2.20;99.90;;;;;;5034136;28;20081;-64
2020/12/27 01:16:11;;;;;;;3.42;2.35;;;2.30;99.90;;;;;;5032721;28;20116;-64
2020/12/27 01:18:42;;;;;;;3.92;2.08;;;2.20;99.90;;;;;;5033740;28;20438;-65
2020/12/27 01:21:07;;;;;;;5.15;2.70;;;2.10;99.90;;;;;;5016829;28;20462;-70
2020/12/27 01:23:33;;;;;;;3.20;1.90;;;2.20;99.90;;;;;;5035427;28;20032;-64
2020/12/27 01:25:59;;;;;;;4.22;2.67;;;2.20;99.90;;;;;;5018301;28;20467;-70
2020/12/27 01:28:25;;;;;;;5.20;2.60;;;2.20;99.90;;;;;;5016968;28;20606;-68
2020/12/27 01:30:50;;;;;;;2.55;1.88;;;2.20;99.90;;;;;;5036761;28;20372;-68
2020/12/27 01:33:16;;;;;;;6.53;2.38;;;2.20;99.90;;;;;;5018290;28;20037;-68
2020/12/27 01:35:45;;;;;;;8.23;3.72;;;2.20;99.90;;;;;;5035902;28;20026;-64
2020/12/27 01:38:14;;;;;;;3.65;2.45;;;2.10;99.90;;;;;;5035376;28;20060;-65
2020/12/27 01:40:40;;;;;;;3.25;2.60;;;2.20;99.90;;;;;;5035466;28;20033;-67
2020/12/27 01:43:06;;;;;;;6.95;2.80;;;2.10;99.90;;;;;;5033918;28;20646;-65
2020/12/27 01:45:31;;;;;;;2.90;2.40;;;2.10;99.90;;;;;;5035552;28;20057;-64
2020/12/27 01:47:57;;;;;;;5.65;2.88;;;2.00;99.90;;;;;;5018755;28;20040;-65
2020/12/27 01:50:24;;;;;;;3.00;2.35;;;2.00;99.90;;;;;;5034572;28;20532;-65
2020/12/27 01:52:50;;;;;;;6.28;3.38;;;2.00;99.90;;;;;;5035130;28;20022;-65
2020/12/27 01:55:16;;;;;;;6.00;2.80;;;2.00;99.90;;;;;;5016604;28;20084;-64
2020/12/27 01:58:17;;;;;;;4.38;3.30;;;2.10;99.90;;;;;;5033835;28;20036;-65
2020/12/27 02:00:44;;;;;;;5.88;2.97;;;2.00;99.90;;;;;;5015708;28;20033;-65
2020/12/27 02:03:10;;;;;;;5.28;3.65;;;2.00;99.90;;;;;;5015176;28;20486;-65
2020/12/27 02:05:37;;;;;;;6.43;2.78;;;1.90;99.90;;;;;;5034374;28;20490;-65
2020/12/27 02:08:03;;;;;;;6.72;2.70;;;2.00;99.90;;;;;;5015833;28;20064;-68
2020/12/27 02:10:31;;;;;;;4.00;2.17;;;2.00;99.90;;;;;;5034272;28;20113;-65
2020/12/27 02:12:57;;;;;;;3.42;2.92;;;2.00;99.90;;;;;;5032599;28;20502;-64
2020/12/27 02:15:23;;;;;;;4.15;2.30;;;1.90;99.90;;;;;;5032453;28;20434;-64
2020/12/27 02:17:49;;;;;;;4.15;2.92;;;2.00;99.90;;;;;;5033881;28;20544;-65
2020/12/27 02:20:14;;;;;;;4.25;2.47;;;1.90;99.90;;;;;;5036049;28;20097;-64
2020/12/27 02:22:41;;;;;;;3.92;3.28;;;2.10;99.90;;;;;;5018929;28;20032;-65
2020/12/27 02:25:06;;;;;;;4.10;2.60;;;2.10;99.90;;;;;;5035727;28;20037;-69
2020/12/27 02:27:33;;;;;;;3.05;2.03;;;2.00;99.90;;;;;;5035928;28;20064;-66
2020/12/27 02:29:59;;;;;;;5.60;2.47;;;2.00;99.90;;;;;;5036701;28;20029;-65
2020/12/27 02:32:25;;;;;;;6.63;3.08;;;2.00;99.90;;;;;;5018445;28;20618;-64
2020/12/27 02:34:50;;;;;;;5.97;3.78;;;2.00;99.90;;;;;;5035834;28;20030;-65
2020/12/27 02:37:16;;;;;;;8.00;2.85;;;1.90;99.90;;;;;;5035242;28;20079;-64
2020/12/27 02:39:42;;;;;;;4.05;2.58;;;2.00;99.90;;;;;;5018236;28;20025;-64
2020/12/27 02:42:07;;;;;;;6.57;2.80;;;1.90;99.90;;;;;;5035894;28;20061;-68
2020/12/27 02:44:49;;;;;;;7.65;3.28;;;1.90;99.90;;;;;;5038319;28;20031;-64
2020/12/27 02:47:15;;;;;;;3.75;2.63;;;1.90;99.90;;;;;;5038292;28;20029;-68
2020/12/27 02:49:41;;;;;;;7.43;3.30;;;1.90;99.90;;;;;;5019936;28;20578;-66
2020/12/27 02:52:06;;;;;;;5.45;3.40;;;1.80;99.90;;;;;;5036433;28;20034;-69
2020/12/27 02:54:32;;;;;;;3.72;3.08;;;1.70;99.90;;;;;;5020351;28;20382;-64
2020/12/27 02:56:57;;;;;;;7.90;3.72;;;1.80;99.90;;;;;;5018884;28;20482;-63
2020/12/27 02:59:23;;;;;;;9.82;4.32;;;1.70;99.90;;;;;;5017192;28;20030;-67
2020/12/27 03:01:48;;;;;;;9.05;4.20;;;1.70;99.90;;;;;;5017668;28;20040;-65
2020/12/27 03:04:14;;;;;;;7.70;3.30;;;1.70;99.90;;;;;;5035026;28;20034;-64
2020/12/27 03:06:40;;;;;;;7.40;3.50;;;1.70;99.90;;;;;;5036121;28;20379;-67
2020/12/27 03:09:05;;;;;;;7.07;3.72;;;1.60;99.90;;;;;;5019027;28;20080;-64
2020/12/27 03:11:31;;;;;;;6.70;3.38;;;1.50;99.90;;;;;;5035872;28;20054;-65
2020/12/27 03:13:56;;;;;;;8.23;3.92;;;1.50;99.90;;;;;;5018977;28;20443;-65
2020/12/27 03:16:22;;;;;;;6.05;3.83;;;1.50;99.90;;;;;;5018888;28;20032;-65
2020/12/27 03:18:48;;;;;;;6.72;3.10;;;1.50;99.90;;;;;;5019543;28;20037;-66
2020/12/27 03:21:14;;;;;;;5.35;3.40;;;1.50;99.90;;;;;;5018834;28;20380;-65
2020/12/27 03:23:39;;;;;;;5.38;3.50;;;1.50;99.90;;;;;;5020047;28;20026;-66
2020/12/27 03:26:05;;;;;;;9.02;4.88;;;1.30;99.90;;;;;;5036720;28;20028;-64
2020/12/27 03:28:31;;;;;;;7.15;4.65;;;1.30;99.90;;;;;;5018548;28;20555;-63
2020/12/27 03:30:56;;;;;;;8.70;4.97;;;1.40;99.90;;;;;;5036799;28;20352;-64
2020/12/27 03:33:22;;;;;;;6.55;4.30;;;1.30;99.90;;;;;;5018647;28;20505;-64
2020/12/27 03:35:48;;;;;;;10.23;4.70;;;1.30;99.90;;;;;;5018795;28;20376;-65
2020/12/27 03:38:14;;;;;;;8.15;4.32;;;1.40;99.90;;;;;;5018336;28;20103;-64
2020/12/27 03:40:40;;;;;;;7.05;4.28;;;1.20;99.90;;;;;;5019173;28;20071;-64
2020/12/27 03:43:06;;;;;;;9.35;4.85;;;1.20;99.90;;;;;;5036826;28;20030;-66
2020/12/27 03:45:31;;;;;;;7.13;4.13;;;1.20;99.90;;;;;;5019118;28;20037;-65
2020/12/27 03:47:57;;;;;;;12.00;4.20;;;1.20;99.90;;;;;;5036978;28;20044;-65
2020/12/27 03:50:23;;;;;;;8.32;3.53;;;1.10;99.90;;;;;;5018507;28;20029;-64
2020/12/27 03:52:49;;;;;;;6.38;3.80;;;1.10;99.90;;;;;;5018706;28;20056;-64
2020/12/27 03:55:15;;;;;;;7.95;4.35;;;1.10;99.90;;;;;;5035313;28;20018;-64
2020/12/27 03:57:41;;;;;;;7.18;4.25;;;1.10;99.90;;;;;;5017824;28;20079;-63
2020/12/27 04:00:07;;;;;;;8.85;4.60;;;1.10;99.90;;;;;;5018114;28;20493;-67
2020/12/27 04:02:33;;;;;;;9.20;4.25;;;1.10;99.90;;;;;;5017873;28;20079;-65
2020/12/27 04:04:58;;;;;;;6.18;4.45;;;1.10;99.90;;;;;;5035445;28;20083;-64
2020/12/27 04:07:24;;;;;;;12.63;4.93;;;1.20;99.90;;;;;;5034058;28;20032;-64
2020/12/27 04:09:50;;;;;;;11.23;4.00;;;1.10;99.90;;;;;;5017028;28;20037;-68
2020/12/27 04:12:15;;;;;;;10.98;5.25;;;1.10;99.90;;;;;;5033737;28;20081;-64
2020/12/27 04:14:41;;;;;;;9.68;4.90;;;1.20;99.90;;;;;;5034305;28;20029;-64
2020/12/27 04:17:07;;;;;;;10.93;5.40;;;1.20;99.90;;;;;;5034267;28;20025;-63
2020/12/27 04:19:32;;;;;;;10.15;3.90;;;1.00;99.90;;;;;;5015540;28;20032;-65
2020/12/27 04:21:58;;;;;;;6.60;4.55;;;1.10;99.90;;;;;;5033742;28;20029;-65
2020/12/27 04:24:24;;;;;;;7.57;4.50;;;1.10;99.90;;;;;;5033342;28;20026;-63
2020/12/27 04:26:49;;;;;;;9.65;3.67;;;1.10;99.90;;;;;;5034527;28;20029;-65
2020/12/27 04:29:15;;;;;;;6.93;4.05;;;1.10;99.90;;;;;;5016401;28;20033;-68
2020/12/27 04:31:40;;;;;;;9.00;4.55;;;1.10;99.90;;;;;;5016415;28;20029;-65
2020/12/27 04:34:06;;;;;;;9.55;3.85;;;1.20;99.90;;;;;;5034355;28;20367;-64
2020/12/27 04:36:32;;;;;;;7.85;4.28;;;1.20;99.90;;;;;;5016438;28;20581;-64
2020/12/27 04:38:58;;;;;;;5.47;3.63;;;1.20;99.90;;;;;;5036884;28;20044;-68
2020/12/27 04:41:24;;;;;;;6.30;4.30;;;1.10;99.90;;;;;;5034830;28;20053;-67
2020/12/27 04:43:50;;;;;;;7.70;4.07;;;1.20;99.90;;;;;;5036805;28;20033;-65
2020/12/27 04:46:16;;;;;;;13.50;4.40;;;1.10;99.90;;;;;;5035751;28;20032;-69
2020/12/27 04:48:44;;;;;;;9.00;3.85;;;1.20;99.90;;;;;;5018958;28;20144;-64
2020/12/27 04:51:11;;;;;;;7.75;4.38;;;1.10;99.90;;;;;;5019903;28;20025;-69
2020/12/27 04:53:38;;;;;;;6.43;3.65;;;1.20;99.90;;;;;;5035669;28;20036;-64
2020/12/27 04:56:06;;;;;;;6.30;3.65;;;1.10;99.90;;;;;;5037002;28;20025;-64
2020/12/27 04:58:32;;;;;;;11.15;4.35;;;1.30;99.90;;;;;;5035793;28;20033;-65
2020/12/27 05:00:59;;;;;;;8.20;4.13;;;1.20;99.90;;;;;;5017028;28;20059;-69
2020/12/27 05:03:25;;;;;;;7.82;4.07;;;1.30;99.90;;;;;;5033292;28;20057;-64
2020/12/27 05:05:51;;;;;;;11.10;5.10;;;1.20;99.90;;;;;;5035373;28;20037;-64
2020/12/27 05:08:20;;;;;;;6.32;3.55;;;1.20;99.90;;;;;;5035380;28;20045;-70
2020/12/27 05:10:46;;;;;;;12.20;4.97;;;1.20;99.90;;;;;;5033751;28;20104;-68
2020/12/27 05:13:14;;;;;;;5.63;3.53;;;1.20;99.90;;;;;;5018477;28;20026;-64
2020/12/27 05:15:40;;;;;;;7.50;4.40;;;1.20;99.90;;;;;;5017126;28;20455;-65
2020/12/27 05:18:08;;;;;;;6.75;3.53;;;1.10;99.90;;;;;;5016784;28;20063;-65
2020/12/27 05:20:35;;;;;;;6.88;3.15;;;1.10;99.90;;;;;;5014714;28;20469;-65
2020/12/27 05:23:02;;;;;;;10.88;4.00;;;1.10;99.90;;;;;;5033629;28;20119;-64
2020/12/27 05:25:30;;;;;;;8.10;3.78;;;1.10;99.90;;;;;;5014723;28;20482;-67
2020/12/27 05:28:01;;;;;;;10.93;4.32;;;1.20;99.90;;;;;;5032746;28;20041;-64
2020/12/27 05:30:28;;;;;;;9.60;4.10;;;1.20;99.90;;;;;;5014051;28;20063;-64
2020/12/27 05:32:57;;;;;;;7.45;3.60;;;1.20;99.90;;;;;;5032510;28;20272;-65
2020/12/27 05:35:23;;;;;;;5.10;3.35;;;1.30;99.90;;;;;;5032477;28;20528;-65
2020/12/27 05:37:50;;;;;;;7.38;3.75;;;1.30;99.90;;;;;;5015603;28;20026;-64
2020/12/27 05:40:16;;;;;;;7.30;3.58;;;1.30;99.90;;;;;;5016101;28;20065;-68
2020/12/27 05:42:43;;;;;;;5.72;3.65;;;1.30;99.90;;;;;;5033570;28;20029;-65
2020/12/27 05:45:17;;;;;;;6.72;3.75;;;1.30;99.90;;;;;;5016262;28;20414;-64
2020/12/27 05:47:44;;;;;;;7.20;3.55;;;1.30;99.90;;;;;;5032041;28;20098;-64
2020/12/27 05:50:15;;;;;;;7.18;3.50;;;1.20;99.90;;;;;;5015199;28;20139;-63
2020/12/27 05:52:49;;;;;;;5.32;3.15;;;1.40;99.90;;;;;;5017336;28;20505;-64
2020/12/27 05:55:21;;;;;;;8.38;4.13;;;1.40;99.90;;;;;;5021670;28;20083;-64
2020/12/27 05:57:52;;;;;;;7.35;3.95;;;1.30;99.90;;;;;;5021520;28;20148;-64
2020/12/27 06:00:23;;;;;;;4.28;2.75;;;1.30;99.90;;;;;;5038645;28;20040;-71
2020/12/27 06:02:59;;;;;;;5.47;3.60;;;1.30;99.90;;;;;;5039157;28;20425;-64
2020/12/27 06:05:54;;;;;;;5.53;3.30;;;1.40;99.90;;;;;;5036598;28;20116;-68
2020/12/27 06:08:29;;;;;;;8.15;4.32;;;1.40;99.90;;;;;;5021091;28;20049;-69
2020/12/27 06:11:06;;;;;;;6.68;3.45;;;1.50;99.90;;;;;;5038664;28;20491;-63
2020/12/27 06:14:02;;;;;;;3.72;2.92;;;1.60;99.90;;;;;;5039697;28;20025;-64
2020/12/27 06:16:45;;;;;;;6.20;3.35;;;1.60;99.90;;;;;;5020509;28;20029;-64
2020/12/27 06:19:23;;;;;;;9.07;3.63;;;1.50;99.90;;;;;;5021110;28;20385;-64
2020/12/27 06:22:07;;;;;;;7.10;3.80;;;1.50;99.90;;;;;;5039341;28;20021;-65
2020/12/27 06:24:33;;;;;;;5.57;3.85;;;1.40;99.90;;;;;;5020744;28;20053;-64
2020/12/27 06:27:00;;;;;;;6.55;4.00;;;1.30;99.90;;;;;;5021504;28;20059;-65
2020/12/27 06:29:39;;;;;;;5.55;3.53;;;1.30;99.90;;;;;;5037946;28;20501;-65
2020/12/27 06:32:06;;;;;;;7.97;3.38;;;1.40;99.90;;;;;;5039345;28;20051;-65
2020/12/27 06:34:33;;;;;;;5.90;3.60;;;1.40;99.90;;;;;;5023300;28;20497;-65
2020/12/27 06:36:59;;;;;;;7.00;3.95;;;1.40;99.90;;;;;;5023216;28;20057;-64
2020/12/27 06:39:28;;;;;;;6.07;3.53;;;1.30;99.90;;;;;;5038727;28;20025;-66
2020/12/27 06:42:10;;;;;;;14.48;4.85;;;1.40;99.90;;;;;;5039012;28;20022;-64
2020/12/27 06:44:42;;;;;;;8.75;4.03;;;1.40;99.90;;;;;;5038150;28;20099;-66
2020/12/27 06:47:12;;;;;;;9.82;4.43;;;1.30;99.90;;;;;;5021123;28;20030;-62
2020/12/27 06:49:38;;;;;;;9.40;4.07;;;1.40;99.90;;;;;;5038095;28;20034;-64
2020/12/27 06:52:24;;;;;;;7.63;4.40;;;1.30;99.90;;;;;;5038623;28;20463;-65
2020/12/27 06:54:52;;;;;;;9.77;5.05;;;1.30;99.90;;;;;;5021170;28;20032;-65
2020/12/27 06:57:40;;;;;;;9.90;4.85;;;1.30;99.90;;;;;;5039322;28;20419;-64
2020/12/27 07:00:24;;;;;;;6.80;3.85;;;1.20;99.90;;;;;;5038394;28;20060;-64
2020/12/27 07:03:22;;;;;;;10.27;4.13;;;1.30;99.90;;;;;;5038590;28;20442;-64
2020/12/27 07:05:50;;;;;;;8.18;4.05;;;1.30;99.90;;;;;;4991078;28;20064;-65
2020/12/27 07:08:42;;;;;;;10.25;4.35;;;1.30;99.90;;;;;;5037871;28;20042;-66
2020/12/27 07:11:09;;;;;;;7.60;3.83;;;1.20;99.90;;;;;;5029166;28;20069;-65
2020/12/27 07:13:42;;;;;;;8.27;4.28;;;1.20;99.90;;;;;;5038099;28;20041;-69
2020/12/27 07:16:11;;;;;;;9.90;4.85;;;1.30;99.90;;;;;;5019033;28;20029;-65
2020/12/27 07:18:37;;;;;;;31.35;17.67;;;1.30;99.90;;;;;;5018605;28;20040;-65
2020/12/27 07:21:09;;;;;;;225.25;112.53;;;1.30;99.90;;;;;;5035888;28;20036;-64
2020/12/27 07:23:37;;;;;;;9.18;5.75;;;1.40;99.90;;;;;;5016822;28;20025;-63
2020/12/27 07:26:04;;;;;;;6.45;3.80;;;1.50;99.90;;;;;;5018059;28;20029;-64
2020/12/27 07:28:30;;;;;;;6.45;4.00;;;1.40;99.90;;;;;;5037377;28;20112;-64
2020/12/27 07:31:01;;;;;;;8.95;4.15;;;1.40;99.90;;;;;;5018000;28;20036;-65
2020/12/27 07:33:35;;;;;;;7.90;3.40;;;1.40;99.90;;;;;;5016715;28;20029;-65
2020/12/27 07:36:06;;;;;;;6.50;3.75;;;1.40;99.90;;;;;;5035446;28;20083;-67
2020/12/27 07:39:00;;;;;;;7.40;3.93;;;1.40;99.90;;;;;;5035812;28;20033;-69
2020/12/27 07:41:32;;;;;;;6.03;2.90;;;1.40;99.90;;;;;;5016844;28;20025;-67
2020/12/27 07:43:58;;;;;;;103.78;54.55;;;1.40;99.90;;;;;;5034979;28;20030;-65
2020/12/27 07:46:26;;;;;;;21.60;12.88;;;1.50;99.90;;;;;;5016926;28;20095;-62
2020/12/27 07:48:53;;;;;;;5.43;3.13;;;1.50;99.90;;;;;;5016856;28;20034;-64
2020/12/27 07:51:24;;;;;;;4.75;3.28;;;1.50;99.90;;;;;;5016683;28;20467;-66
2020/12/27 07:53:54;;;;;;;7.20;3.30;;;1.50;99.90;;;;;;5016522;28;20025;-66
2020/12/27 07:56:25;;;;;;;4.75;2.67;;;1.50;99.90;;;;;;5035091;28;20024;-64
2020/12/27 07:58:59;;;;;;;4.22;3.05;;;1.50;99.90;;;;;;5034612;28;20474;-67
2020/12/27 08:01:33;;;;;;;6.78;3.45;;;1.50;99.90;;;;;;5016629;28;20068;-70
2020/12/27 08:04:00;;;;;;;4.85;2.70;;;1.50;99.90;;;;;;5017047;28;20033;-63
2020/12/27 08:06:28;;;;;;;5.57;2.88;;;1.50;99.90;;;;;;5016612;28;20025;-70
2020/12/27 08:09:13;;;;;;;6.10;3.17;;;1.60;99.90;;;;;;5016787;28;20033;-65
2020/12/27 08:11:42;;;;;;;5.35;2.95;;;1.70;99.90;;;;;;5034029;28;20500;-65
2020/12/27 08:14:10;;;;;;;6.32;3.30;;;1.60;99.90;;;;;;5016900;28;20068;-64
2020/12/27 08:16:37;;;;;;;5.53;2.95;;;1.60;99.90;;;;;;5033962;28;20021;-66
2020/12/27 08:19:13;;;;;;;5.00;3.05;;;1.50;99.90;;;;;;5034501;28;20025;-65
2020/12/27 08:21:44;;;;;;;4.82;2.50;;;1.60;99.90;;;;;;5016288;28;20025;-66
2020/12/27 08:24:10;;;;;;;4.50;2.45;;;2.90;99.90;;;;;;5035851;28;20091;-65
2020/12/27 08:26:39;;;;;;;3.53;2.53;;;1.90;99.90;;;;;;5017040;28;20025;-65
2020/12/27 08:29:20;;;;;;;4.88;2.72;;;1.80;99.90;;;;;;5016615;28;20029;-64
2020/12/27 08:31:51;;;;;;;8.15;3.53;;;1.70;99.90;;;;;;5034734;28;20180;-66
2020/12/27 08:34:23;;;;;;;58.55;29.52;;;2.40;99.90;;;;;;5019383;28;20038;-64
2020/12/27 08:36:50;;;;;;;;;;;2.10;99.90;;;;;;5034922;28;20025;-65
2020/12/27 08:39:15;;;;;;;3.88;2.20;;;2.00;99.90;;;;;;5016784;28;19967;-63
2020/12/27 08:41:49;;;;;;;2.80;2.03;;;1.90;99.90;;;;;;5016129;28;20033;-63
2020/12/27 08:44:17;;;;;;;6.15;2.55;;;1.90;99.90;;;;;;5036311;28;20029;-63
2020/12/27 08:46:47;;;;;;;6.97;3.03;;;1.80;99.90;;;;;;5035302;28;20026;-64
2020/12/27 08:49:38;;;;;;;3.67;1.67;;;1.90;99.90;;;;;;5018338;28;20034;-63
2020/12/27 08:52:24;;;;;;;3.35;1.73;;;2.00;99.90;;;;;;5037168;28;20104;-63
2020/12/27 08:54:56;;;;;;;3.95;2.33;;;1.90;99.90;;;;;;5036175;28;20025;-62
2020/12/27 08:57:22;;;;;;;11.45;2.33;;;1.90;99.90;;;;;;5036477;28;20028;-63
2020/12/27 09:00:03;;;;;;;5.78;1.85;;;2.00;99.90;;;;;;5036014;28;20117;-66
2020/12/27 09:02:29;;;;;;;4.05;2.38;;;2.00;99.90;;;;;;5017841;28;20130;-70
2020/12/27 09:05:07;;;;;;;3.42;2.10;;;2.10;99.90;;;;;;5034210;28;20122;-63
2020/12/27 09:07:34;;;;;;;4.22;1.92;;;2.00;99.90;;;;;;5019376;28;20052;-68
2020/12/27 09:10:17;;;;;;;4.97;2.53;;;2.00;99.90;;;;;;5037416;28;20091;-66
2020/12/27 09:13:02;;;;;;;3.78;2.05;;;2.00;99.90;;;;;;5019795;28;20073;-72
2020/12/27 09:15:33;;;;;;;2.40;1.60;;;2.10;99.90;;;;;;5018700;28;20025;-67
2020/12/27 09:18:04;;;;;;;3.90;1.60;;;2.10;99.90;;;;;;5035217;28;20021;-65
2020/12/27 09:20:32;;;;;;;4.43;2.33;;;2.10;99.90;;;;;;5016106;28;20516;-70
2020/12/27 09:22:58;;;;;;;5.47;1.85;;;2.20;99.90;;;;;;5015859;28;20083;-65
2020/12/27 09:25:25;;;;;;;6.00;2.30;;;2.20;99.90;;;;;;5016044;28;20030;-67
2020/12/27 09:27:52;;;;;;;5.13;2.53;;;2.20;99.90;;;;;;5032162;28;20032;-66
2020/12/27 09:30:24;;;;;;;2.83;1.70;;;2.20;99.90;;;;;;5015471;28;20025;-67
2020/12/27 09:32:50;;;;;;;4.80;1.88;;;2.30;99.90;;;;;;5014814;28;20041;-66
2020/12/27 09:35:22;;;;;;;7.32;1.60;;;2.30;99.90;;;;;;5033429;28;20036;-67
2020/12/27 09:37:49;;;;;;;3.33;1.50;;;2.40;99.90;;;;;;5032373;28;20475;-68
2020/12/27 09:40:16;;;;;;;2.45;1.60;;;2.30;99.90;;;;;;5015412;28;20072;-69
2020/12/27 09:42:42;;;;;;;2.08;1.30;;;2.30;99.90;;;;;;5014219;28;20026;-66
2020/12/27 09:45:25;;;;;;;2.80;1.30;;;2.40;99.90;;;;;;5041690;28;20517;-67
2020/12/27 09:47:55;;;;;;;5.57;1.95;;;2.40;99.90;;;;;;5035748;28;20060;-68
2020/12/27 09:50:34;;;;;;;2.15;1.63;;;2.40;99.90;;;;;;5033125;28;20026;-69
2020/12/27 09:53:01;;;;;;;2.45;1.63;;;2.50;99.90;;;;;;5053315;28;20025;-67
2020/12/27 09:55:27;;;;;;;3.20;1.27;;;2.50;99.90;;;;;;5053371;28;20074;-67
2020/12/27 09:57:53;;;;;;;2.58;1.52;;;2.50;99.90;;;;;;5035401;28;20075;-67
2020/12/27 10:00:19;;;;;;;2.13;1.13;;;2.50;99.90;;;;;;5036934;28;20373;-66
2020/12/27 10:02:44;;;;;;;11.00;1.40;;;2.60;99.90;;;;;;5054437;28;20037;-68
2020/12/27 10:05:11;;;;;;;3.78;1.88;;;2.50;99.90;;;;;;5035772;28;20032;-67
2020/12/27 10:07:38;;;;;;;2.83;1.15;;;2.50;99.90;;;;;;5054121;28;20039;-67
2020/12/27 10:10:05;;;;;;;5.38;1.58;;;2.50;99.90;;;;;;5055725;28;20029;-67
2020/12/27 10:12:33;;;;;;;3.28;1.13;;;2.50;99.90;;;;;;5053700;28;20049;-68
2020/12/27 10:14:58;;;;;;;2.03;1.20;;;2.60;99.90;;;;;;5052955;28;20055;-67
2020/12/27 10:17:24;;;;;;;2.83;1.20;;;2.60;99.90;;;;;;5053355;28;20021;-66
2020/12/27 10:19:50;;;;;;;2.75;1.40;;;2.70;99.90;;;;;;5050187;28;20033;-67
2020/12/27 10:22:17;;;;;;;4.45;1.15;;;2.70;99.90;;;;;;5037239;28;20386;-67
2020/12/27 10:24:43;;;;;;;2.67;1.58;;;2.60;99.90;;;;;;5056959;28;20072;-67
2020/12/27 10:27:09;;;;;;;1.58;0.93;;;2.70;99.90;;;;;;5056505;28;20029;-66
2020/12/27 10:29:35;;;;;;;4.13;1.00;;;2.70;99.90;;;;;;5021432;28;20047;-68
2020/12/27 10:32:05;;;;;;;1.85;1.50;;;2.70;99.90;;;;;;5037521;28;20111;-68
2020/12/27 10:34:32;;;;;;;3.70;1.13;;;2.70;99.90;;;;;;5054466;28;20041;-67
2020/12/27 10:36:59;;;;;;;1.30;1.15;;;2.80;99.90;;;;;;5053060;28;20067;-66
2020/12/27 10:39:25;;;;;;;2.78;1.27;;;2.80;99.90;;;;;;5053752;28;20142;-66
2020/12/27 10:41:52;;;;;;;2.42;0.90;;;2.70;99.90;;;;;;5056492;28;20048;-66
2020/12/27 10:44:20;;;;;;;1.77;1.33;;;2.80;99.90;;;;;;5039090;28;20079;-66
2020/12/27 10:46:46;;;;;;;1.17;0.80;;;2.80;99.90;;;;;;5038679;28;20029;-67
2020/12/27 10:49:12;;;;;;;3.17;1.00;;;2.80;99.90;;;;;;5056329;28;20493;-67
2020/12/27 10:51:39;;;;;;;4.40;1.30;;;3.10;99.90;;;;;;5055534;28;20029;-66
2020/12/27 10:54:07;;;;;;;1.98;1.00;;;3.00;99.90;;;;;;5038693;28;20052;-65
2020/12/27 10:56:33;;;;;;;1.65;0.80;;;2.90;99.90;;;;;;5057188;28;20021;-64
2020/12/27 10:59:00;;;;;;;2.15;1.13;;;2.90;99.90;;;;;;5039162;28;20036;-63
2020/12/27 11:01:26;;;;;;;1.35;0.82;;;2.90;99.90;;;;;;5057885;28;20025;-65
2020/12/27 11:03:51;;;;;;;2.60;0.90;;;2.90;99.90;;;;;;5039204;28;20056;-67
2020/12/27 11:06:17;;;;;;;2.17;0.88;;;2.90;99.90;;;;;;5040322;28;20367;-66
2020/12/27 11:08:43;;;;;;;2.15;0.75;;;3.00;99.90;;;;;;5038382;28;20029;-69
2020/12/27 11:11:09;;;;;;;2.85;1.23;;;3.00;99.90;;;;;;5055665;28;20119;-68
2020/12/27 11:13:34;;;;;;;3.35;0.98;;;3.00;99.90;;;;;;5037994;28;20110;-63
2020/12/27 11:16:00;;;;;;;7.28;1.25;;;3.00;99.90;;;;;;5054728;28;20037;-63
2020/12/27 11:18:26;;;;;;;4.25;0.73;;;3.10;99.90;;;;;;5037587;28;20033;-64
2020/12/27 11:20:51;;;;;;;1.38;0.68;;;3.00;99.90;;;;;;5054853;28;20025;-64
2020/12/27 11:23:17;;;;;;;2.63;1.60;;;3.00;99.90;;;;;;5037450;28;20064;-62
2020/12/27 11:25:43;;;;;;;1.02;0.65;;;3.10;99.90;;;;;;5054144;28;20055;-60
2020/12/27 11:28:09;;;;;;;1.00;0.40;;;3.00;99.90;;;;;;5037673;28;20033;-67
2020/12/27 11:30:34;;;;;;;5.57;0.80;;;3.10;99.90;;;;;;5054731;28;20116;-67
2020/12/27 11:33:00;;;;;;;1.58;0.68;;;3.20;99.90;;;;;;5054246;28;20032;-64
2020/12/27 11:35:26;;;;;;;3.72;0.77;;;3.30;99.90;;;;;;5034156;28;20021;-64
2020/12/27 11:37:52;;;;;;;1.55;0.90;;;3.60;99.90;;;;;;5023040;28;20044;-65
2020/12/27 11:40:18;;;;;;;5.00;0.95;;;3.50;99.90;;;;;;5055137;28;20075;-65
2020/12/27 11:42:44;;;;;;;1.83;0.90;;;3.30;99.90;;;;;;5036314;28;20025;-66
2020/12/27 11:45:10;;;;;;;1.48;0.98;;;3.30;99.90;;;;;;5053858;28;20029;-67
2020/12/27 11:47:36;;;;;;;1.88;0.95;;;3.20;99.90;;;;;;5055760;28;20021;-66
2020/12/27 11:50:03;;;;;;;2.47;0.73;;;3.30;99.90;;;;;;5036408;28;20044;-63
2020/12/27 11:52:28;;;;;;;2.70;0.77;;;3.30;99.90;;;;;;5036099;28;20466;-65
2020/12/27 11:54:54;;;;;;;4.85;1.02;;;3.30;99.90;;;;;;5037704;28;20021;-63
2020/12/27 11:57:20;;;;;;;1.20;0.80;;;3.40;99.90;;;;;;5054918;28;20025;-64
2020/12/27 11:59:46;;;;;;;3.08;0.70;;;3.40;99.90;;;;;;5053117;28;20029;-66
2020/12/27 12:02:12;;;;;;;1.83;0.70;;;3.40;99.90;;;;;;5034427;28;20029;-62
2020/12/27 12:04:37;;;;;;;0.80;0.60;;;3.40;99.90;;;;;;5054064;28;20033;-66
2020/12/27 12:07:03;;;;;;;2.65;0.75;;;3.50;99.90;;;;;;5033256;28;20029;-65
2020/12/27 12:09:30;;;;;;;1.20;0.75;;;3.50;99.90;;;;;;5053061;28;20036;-64
2020/12/27 12:11:55;;;;;;;1.40;0.90;;;3.50;99.90;;;;;;5053468;28;20068;-65
2020/12/27 12:14:21;;;;;;;1.20;0.60;;;3.60;99.90;;;;;;5054562;28;20056;-65
2020/12/27 12:16:47;;;;;;;2.13;1.02;;;3.60;99.90;;;;;;5054104;28;20108;-65
2020/12/27 12:19:13;;;;;;;3.50;0.80;;;3.70;99.90;;;;;;5036002;28;20040;-64
2020/12/27 12:21:38;;;;;;;0.77;0.57;;;3.60;99.90;;;;;;5053678;28;20025;-64
2020/12/27 12:24:04;;;;;;;0.85;0.65;;;3.60;99.90;;;;;;5052898;28;20550;-64
2020/12/27 12:26:31;;;;;;;1.20;0.50;;;3.70;99.90;;;;;;5035530;28;20524;-66
2020/12/27 12:28:58;;;;;;;4.78;0.63;;;3.70;99.90;;;;;;5054749;28;20107;-65
2020/12/27 12:31:25;;;;;;;0.75;0.60;;;3.80;99.90;;;;;;5054112;28;20049;-66
2020/12/27 12:33:51;;;;;;;1.27;0.80;;;3.80;99.90;;;;;;5053773;28;20568;-67
2020/12/27 12:36:18;;;;;;;1.95;0.80;;;3.70;99.90;;;;;;5036416;28;20020;-62
2020/12/27 12:38:44;;;;;;;1.30;0.70;;;3.80;99.90;;;;;;5052609;28;20067;-67
2020/12/27 12:41:11;;;;;;;1.23;0.55;;;3.70;99.90;;;;;;5036898;28;20025;-63
2020/12/27 12:43:38;;;;;;;0.98;0.77;;;3.70;99.90;;;;;;5034789;28;20425;-64
2020/12/27 12:46:04;;;;;;;5.32;0.68;;;3.80;99.90;;;;;;5052911;28;20021;-65
2020/12/27 12:48:30;;;;;;;0.88;0.75;;;3.80;99.90;;;;;;5053886;28;20095;-64
2020/12/27 12:50:55;;;;;;;1.17;0.57;;;3.80;99.90;;;;;;5035234;28;20152;-64
2020/12/27 12:53:21;;;;;;;0.65;0.55;;;3.70;99.90;;;;;;5053207;28;20029;-65
2020/12/27 12:55:46;;;;;;;1.52;0.70;;;3.80;99.90;;;;;;5035162;28;20029;-66
2020/12/27 12:58:12;;;;;;;1.38;0.70;;;3.80;99.90;;;;;;5035114;28;20050;-64
2020/12/27 13:00:38;;;;;;;2.33;0.73;;;3.80;99.90;;;;;;5034813;28;20033;-65